CGVVD CYXU-CYXU
Flight info
| Callsign | CGVVD |
|---|---|
| Flight time | 0h 7m |
| Altitude | 1900 |
| Route | VFR CIRCUITS |
| Aircraft | C172 |
Departure
| Time | 2026-05-06 23:25 |
|---|---|
| Airport | London International Airport (CYXU) |
Arrival
| Time | 2026-05-06 23:32 |
|---|---|
| Airport | London International Airport (CYXU) |
| Time | Latitude | Longitude | Altitude | Speed | Heading |
|---|---|---|---|---|---|
| 2026-05-06 23:15 | 43.03219 | -81.15289 | 903 ft | 0 kts | 90° |
| 2026-05-06 23:16 | 43.03236 | -81.15228 | 903 ft | 10 kts | 49° |
| 2026-05-06 23:16 | 43.03260 | -81.15154 | 903 ft | 11 kts | 141° |
| 2026-05-06 23:16 | 43.03199 | -81.15084 | 903 ft | 13 kts | 139° |
| 2026-05-06 23:17 | 43.03131 | -81.15003 | 903 ft | 13 kts | 150° |
| 2026-05-06 23:17 | 43.03059 | -81.14917 | 903 ft | 14 kts | 142° |
| 2026-05-06 23:17 | 43.02979 | -81.14822 | 903 ft | 16 kts | 136° |
| 2026-05-06 23:17 | 43.02894 | -81.14714 | 903 ft | 15 kts | 122° |
| 2026-05-06 23:18 | 43.02923 | -81.14602 | 903 ft | 6 kts | 46° |
| 2026-05-06 23:18 | 43.02925 | -81.14600 | 903 ft | 0 kts | 45° |
| 2026-05-06 23:18 | 43.02925 | -81.14599 | 903 ft | 0 kts | 45° |
| 2026-05-06 23:18 | 43.02925 | -81.14600 | 903 ft | 0 kts | 45° |
| 2026-05-06 23:24 | 43.02981 | -81.14539 | 903 ft | 16 kts | 335° |
| 2026-05-06 23:24 | 43.03182 | -81.14756 | 921 ft | 59 kts | 317° |
| 2026-05-06 23:24 | 43.03537 | -81.15225 | 1058 ft | 76 kts | 319° |
| 2026-05-06 23:25 | 43.03991 | -81.15594 | 1339 ft | 78 kts | 328° |
| 2026-05-06 23:25 | 43.04510 | -81.15885 | 1594 ft | 87 kts | 358° |
| 2026-05-06 23:25 | 43.04980 | -81.15345 | 1813 ft | 102 kts | 72° |
| 2026-05-06 23:25 | 43.05044 | -81.14411 | 1908 ft | 95 kts | 73° |
| 2026-05-06 23:26 | 43.05155 | -81.13527 | 1933 ft | 94 kts | 75° |
| 2026-05-06 23:26 | 43.04962 | -81.12695 | 1936 ft | 105 kts | 145° |
| 2026-05-06 23:26 | 43.04317 | -81.12294 | 1985 ft | 99 kts | 153° |
| 2026-05-06 23:26 | 43.03954 | -81.11593 | 1998 ft | 94 kts | 88° |
| 2026-05-06 23:27 | 43.04198 | -81.10863 | 1919 ft | 90 kts | 24° |
| 2026-05-06 23:27 | 43.04749 | -81.10995 | 1940 ft | 85 kts | 317° |
| 2026-05-06 23:27 | 43.04852 | -81.11776 | 1950 ft | 95 kts | 257° |
| 2026-05-06 23:27 | 43.04282 | -81.12279 | 1959 ft | 108 kts | 187° |
| 2026-05-06 23:28 | 43.03587 | -81.11951 | 1968 ft | 106 kts | 145° |
| 2026-05-06 23:28 | 43.02958 | -81.11449 | 2020 ft | 102 kts | 154° |
| 2026-05-06 23:28 | 43.02327 | -81.11035 | 2091 ft | 101 kts | 151° |
| 2026-05-06 23:28 | 43.01650 | -81.10536 | 1954 ft | 114 kts | 147° |
| 2026-05-06 23:29 | 43.01025 | -81.09876 | 1913 ft | 113 kts | 141° |
| 2026-05-06 23:29 | 43.00435 | -81.09231 | 2024 ft | 105 kts | 139° |
| 2026-05-06 23:29 | 42.99840 | -81.08603 | 1943 ft | 113 kts | 141° |
| 2026-05-06 23:29 | 42.99169 | -81.08107 | 1955 ft | 107 kts | 172° |
| 2026-05-06 23:30 | 42.98498 | -81.08354 | 1930 ft | 99 kts | 228° |
| 2026-05-06 23:30 | 42.98291 | -81.09125 | 1896 ft | 80 kts | 293° |
| 2026-05-06 23:30 | 42.98633 | -81.09526 | 1824 ft | 61 kts | 336° |
| 2026-05-06 23:30 | 42.98976 | -81.09763 | 1742 ft | 50 kts | 329° |
| 2026-05-06 23:31 | 42.99269 | -81.10042 | 1721 ft | 55 kts | 323° |
| 2026-05-06 23:31 | 42.99559 | -81.10406 | 1714 ft | 58 kts | 318° |
| 2026-05-06 23:31 | 42.99853 | -81.10785 | 1635 ft | 58 kts | 320° |
| 2026-05-06 23:31 | 43.00159 | -81.11158 | 1549 ft | 58 kts | 321° |
| 2026-05-06 23:32 | 43.00464 | -81.11496 | 1495 ft | 56 kts | 322° |
| 2026-05-06 23:32 | 43.00766 | -81.11868 | 1353 ft | 60 kts | 320° |
| 2026-05-06 23:32 | 43.01032 | -81.12159 | 1266 ft | 45 kts | 307° |
| 2026-05-06 23:32 | 43.01010 | -81.12691 | 1296 ft | 78 kts | 245° |
| 2026-05-06 23:33 | 43.00517 | -81.13137 | 1439 ft | 98 kts | 198° |
| 2026-05-06 23:33 | 42.99943 | -81.12622 | 1580 ft | 110 kts | 106° |
| 2026-05-06 23:33 | 43.00058 | -81.11619 | 1700 ft | 105 kts | 62° |
| 2026-05-06 23:33 | 43.00530 | -81.11215 | 1727 ft | 77 kts | 342° |
| 2026-05-06 23:34 | 43.00891 | -81.11779 | 1559 ft | 86 kts | 305° |
| 2026-05-06 23:34 | 43.01253 | -81.12410 | 1293 ft | 81 kts | 313° |
| 2026-05-06 23:34 | 43.01640 | -81.12914 | 1147 ft | 74 kts | 318° |
| 2026-05-06 23:34 | 43.02009 | -81.13340 | 1037 ft | 70 kts | 316° |
| 2026-05-06 23:35 | 43.02348 | -81.13741 | 969 ft | 58 kts | 316° |
| 2026-05-06 23:35 | 43.02617 | -81.14067 | 905 ft | 45 kts | 315° |
| 2026-05-06 23:35 | 43.02798 | -81.14284 | 905 ft | 29 kts | 317° |
| 2026-05-06 23:35 | 43.02927 | -81.14438 | 903 ft | 19 kts | 316° |
| 2026-05-06 23:36 | 43.02956 | -81.14552 | 903 ft | 12 kts | 239° |
| 2026-05-06 23:36 | 43.02889 | -81.14657 | 903 ft | 14 kts | 246° |
| 2026-05-06 23:36 | 43.02929 | -81.14755 | 903 ft | 13 kts | 311° |
| 2026-05-06 23:36 | 43.03000 | -81.14845 | 903 ft | 15 kts | 318° |
| 2026-05-06 23:37 | 43.03085 | -81.14950 | 903 ft | 18 kts | 314° |
| 2026-05-06 23:37 | 43.03183 | -81.15065 | 903 ft | 19 kts | 320° |